createdAt,value
2023-01-29T00:02:27.120Z,-0.43
2023-01-29T00:04:58.894Z,-0.42
2023-01-29T00:07:26.869Z,-0.40
2023-01-29T00:09:54.412Z,-0.41
2023-01-29T00:12:22.049Z,-0.39
2023-01-29T00:14:49.729Z,-0.39
2023-01-29T00:17:17.308Z,-0.39
2023-01-29T00:19:44.960Z,-0.41
2023-01-29T00:22:12.429Z,-0.44
2023-01-29T00:24:39.988Z,-0.46
2023-01-29T00:27:08.126Z,-0.51
2023-01-29T00:29:35.855Z,-0.55
2023-01-29T00:32:03.559Z,-0.57
2023-01-29T00:34:31.203Z,-0.63
2023-01-29T00:37:09.061Z,-0.66
2023-01-29T00:39:47.842Z,-0.69
2023-01-29T00:42:34.455Z,-0.71
2023-01-29T00:45:02.142Z,-0.74
2023-01-29T00:47:35.535Z,-0.76
2023-01-29T00:50:10.594Z,-0.78
2023-01-29T00:52:41.074Z,-0.81
2023-01-29T00:55:11.427Z,-0.83
2023-01-29T00:57:39.195Z,-0.83
2023-01-29T01:00:15.198Z,-0.83
2023-01-29T01:03:02.333Z,-0.85
2023-01-29T01:05:30.082Z,-0.88
2023-01-29T01:07:59.079Z,-0.86
2023-01-29T01:10:32.080Z,-0.86
2023-01-29T01:13:04.586Z,-0.86
2023-01-29T01:15:37.577Z,-0.87
2023-01-29T01:18:05.925Z,-0.89
2023-01-29T01:20:36.104Z,-0.89
2023-01-29T01:23:04.300Z,-0.90
2023-01-29T01:25:32.042Z,-0.91
2023-01-29T01:28:03.170Z,-0.91
2023-01-29T01:30:30.842Z,-0.92
2023-01-29T01:32:59.523Z,-0.94
2023-01-29T01:35:27.206Z,-0.94
2023-01-29T01:37:54.871Z,-0.96
2023-01-29T01:40:25.538Z,-0.96
2023-01-29T01:42:58.508Z,-0.97
2023-01-29T01:45:34.810Z,-0.96
2023-01-29T01:48:15.474Z,-0.95
2023-01-29T01:50:53.313Z,-0.93
2023-01-29T01:53:54.207Z,-0.94
2023-01-29T01:56:38.240Z,-0.97
2023-01-29T01:59:11.024Z,-0.96
2023-01-29T02:01:42.896Z,-0.96
2023-01-29T02:04:36.941Z,-0.96
2023-01-29T02:07:29.131Z,-0.99
2023-01-29T02:10:17.362Z,-0.99
2023-01-29T02:12:46.168Z,-1.01
2023-01-29T02:15:13.932Z,-1.00
2023-01-29T02:17:41.442Z,-0.99
2023-01-29T02:20:17.698Z,-0.98
2023-01-29T02:23:05.941Z,-0.98
2023-01-29T02:25:45.401Z,-1.00
2023-01-29T02:28:37.100Z,-1.01
2023-01-29T02:31:28.351Z,-1.01
2023-01-29T02:34:28.727Z,-1.04
2023-01-29T02:37:14.618Z,-1.04
2023-01-29T02:40:02.028Z,-1.04
2023-01-29T02:42:48.940Z,-1.05
2023-01-29T02:45:26.037Z,-1.06
2023-01-29T02:48:02.173Z,-1.05
2023-01-29T02:51:00.537Z,-1.02
2023-01-29T02:53:39.213Z,-1.03
2023-01-29T02:56:22.034Z,-1.03
2023-01-29T02:59:09.911Z,-1.04
2023-01-29T03:01:48.539Z,-1.02
2023-01-29T03:04:25.810Z,-1.04
2023-01-29T03:07:10.634Z,-1.03
2023-01-29T03:09:48.806Z,-1.05
2023-01-29T03:12:39.292Z,-1.04
2023-01-29T03:15:18.197Z,-1.06
2023-01-29T03:18:14.064Z,-1.04
2023-01-29T03:20:58.414Z,-1.02
2023-01-29T03:23:53.979Z,-0.99
2023-01-29T03:26:41.946Z,-0.99
2023-01-29T03:29:31.279Z,-0.99
2023-01-29T03:32:06.672Z,-1.00
2023-01-29T03:34:51.696Z,-0.98
2023-01-29T03:37:31.014Z,-0.98
2023-01-29T03:39:59.073Z,-0.98
2023-01-29T03:42:50.260Z,-0.96
2023-01-29T03:45:28.735Z,-0.95
2023-01-29T03:48:23.312Z,-0.92
2023-01-29T03:51:24.787Z,-0.89
2023-01-29T03:54:26.400Z,-0.89
2023-01-29T03:57:16.018Z,-0.87
2023-01-29T04:00:04.641Z,-0.84
2023-01-29T04:03:22.968Z,-0.82
2023-01-29T04:06:09.813Z,-0.81
2023-01-29T04:09:22.178Z,-0.78
2023-01-29T04:12:03.967Z,-0.80
2023-01-29T04:14:33.055Z,-0.79
2023-01-29T04:17:11.193Z,-0.74
2023-01-29T04:19:48.058Z,-0.74
2023-01-29T04:22:35.364Z,-0.72
2023-01-29T04:25:15.937Z,-0.73
2023-01-29T04:28:13.702Z,-0.71
2023-01-29T04:30:53.193Z,-0.70
2023-01-29T04:33:53.155Z,-0.67
2023-01-29T04:36:41.507Z,-0.67
2023-01-29T04:39:21.061Z,-0.67
2023-01-29T04:42:15.242Z,-0.66
2023-01-29T04:44:59.666Z,-0.66
2023-01-29T04:48:14.488Z,-0.63
2023-01-29T04:50:57.526Z,-0.63
2023-01-29T04:53:37.922Z,-0.63
2023-01-29T04:56:34.427Z,-0.61
2023-01-29T04:59:13.282Z,-0.59
2023-01-29T05:01:41.878Z,-0.57
2023-01-29T05:04:16.223Z,-0.54
2023-01-29T05:06:46.880Z,-0.53
2023-01-29T05:09:17.612Z,-0.50
2023-01-29T05:11:47.697Z,-0.47
2023-01-29T05:14:19.759Z,-0.45
2023-01-29T05:16:54.035Z,-0.44
2023-01-29T05:19:21.467Z,-0.44
2023-01-29T05:21:50.732Z,-0.44
2023-01-29T05:24:26.035Z,-0.42
2023-01-29T05:27:13.308Z,-0.42
2023-01-29T05:29:47.015Z,-0.42
2023-01-29T05:32:16.519Z,-0.41
2023-01-29T05:34:44.074Z,-0.39
2023-01-29T05:37:11.610Z,-0.37
2023-01-29T05:39:39.117Z,-0.34
2023-01-29T05:42:06.666Z,-0.32
2023-01-29T05:44:34.129Z,-0.29
2023-01-29T05:47:02.778Z,-0.28
2023-01-29T05:49:30.353Z,-0.25
2023-01-29T05:51:57.839Z,-0.22
2023-01-29T05:54:25.466Z,-0.20
2023-01-29T05:56:53.023Z,-0.18
2023-01-29T05:59:21.068Z,-0.17
2023-01-29T06:01:48.572Z,-0.16
2023-01-29T06:04:16.060Z,-0.15
2023-01-29T06:06:44.639Z,-0.14
2023-01-29T06:09:12.364Z,-0.12
2023-01-29T06:11:40.168Z,-0.11
2023-01-29T06:14:07.766Z,-0.08
2023-01-29T06:16:35.328Z,-0.05
2023-01-29T06:19:02.829Z,-0.03
2023-01-29T06:21:30.377Z,-0.02
2023-01-29T06:23:57.925Z,-0.02
2023-01-29T06:26:25.481Z,0.02
2023-01-29T06:28:53.090Z,0.03
2023-01-29T06:31:36.838Z,0.05
2023-01-29T06:34:07.848Z,0.07
2023-01-29T06:36:35.617Z,0.08
2023-01-29T06:39:04.124Z,0.09
2023-01-29T06:41:31.721Z,0.11
2023-01-29T06:43:59.239Z,0.13
2023-01-29T06:46:26.745Z,0.14
2023-01-29T06:48:54.335Z,0.17
2023-01-29T06:51:22.941Z,0.19
2023-01-29T06:53:50.551Z,0.19
2023-01-29T06:56:18.049Z,0.20
2023-01-29T06:58:45.688Z,0.22
2023-01-29T07:01:33.037Z,0.23
2023-01-29T07:04:01.644Z,0.22
2023-01-29T07:06:30.006Z,0.23
2023-01-29T07:08:57.646Z,0.24
2023-01-29T07:11:25.200Z,0.26
2023-01-29T07:13:52.700Z,0.27
2023-01-29T07:16:23.325Z,0.29
2023-01-29T07:18:51.193Z,0.31
2023-01-29T07:21:18.842Z,0.33
2023-01-29T07:23:46.661Z,0.36
2023-01-29T07:26:14.112Z,0.37
2023-01-29T07:28:41.633Z,0.39
2023-01-29T07:31:13.422Z,0.42
2023-01-29T07:33:44.435Z,0.43
2023-01-29T07:36:13.576Z,0.44
2023-01-29T07:38:41.393Z,0.45
2023-01-29T07:41:11.714Z,0.46
2023-01-29T07:43:39.343Z,0.47
2023-01-29T07:46:07.081Z,0.48
2023-01-29T07:48:34.659Z,0.50
2023-01-29T07:51:02.424Z,0.49
2023-01-29T07:53:30.806Z,0.51
2023-01-29T07:55:58.559Z,0.52
2023-01-29T07:58:26.116Z,0.51
2023-01-29T08:00:53.845Z,0.50
2023-01-29T08:03:21.408Z,0.52
2023-01-29T08:05:49.343Z,0.53
2023-01-29T08:08:17.139Z,0.53
2023-01-29T08:10:44.713Z,0.54
2023-01-29T08:13:12.285Z,0.54
2023-01-29T08:15:45.195Z,0.55
2023-01-29T08:18:14.766Z,0.56
2023-01-29T08:20:42.449Z,0.55
2023-01-29T08:23:15.657Z,0.56
2023-01-29T08:25:43.401Z,0.56
2023-01-29T08:28:11.811Z,0.59
2023-01-29T08:30:39.901Z,0.59
2023-01-29T08:33:08.528Z,0.62
2023-01-29T08:35:36.628Z,0.62
2023-01-29T08:38:05.595Z,0.62
2023-01-29T08:40:35.504Z,0.62
2023-01-29T08:43:08.696Z,0.64
2023-01-29T08:45:41.257Z,0.66
2023-01-29T08:48:10.365Z,0.68
2023-01-29T08:50:39.150Z,0.70
2023-01-29T08:53:09.072Z,0.71
2023-01-29T08:55:39.599Z,0.73
2023-01-29T08:58:11.354Z,0.77
2023-01-29T09:00:39.402Z,0.80
2023-01-29T09:03:07.973Z,0.82
2023-01-29T09:05:40.879Z,0.84
2023-01-29T09:08:10.056Z,0.85
2023-01-29T09:10:37.610Z,0.86
2023-01-29T09:13:05.475Z,0.88
2023-01-29T09:15:32.979Z,0.88
2023-01-29T09:18:04.514Z,0.91
2023-01-29T09:20:33.155Z,0.92
2023-01-29T09:23:06.589Z,0.93
2023-01-29T09:25:34.373Z,0.97
2023-01-29T09:28:02.170Z,1.00
2023-01-29T09:30:29.771Z,1.03
2023-01-29T09:32:57.256Z,1.03
2023-01-29T09:35:24.978Z,1.07
2023-01-29T09:37:52.746Z,1.09
2023-01-29T09:40:35.348Z,1.12
2023-01-29T09:43:24.370Z,1.16
2023-01-29T09:46:20.912Z,1.16
2023-01-29T09:49:01.808Z,1.19
2023-01-29T09:51:41.272Z,1.24
2023-01-29T09:54:23.146Z,1.26
2023-01-29T09:56:54.904Z,1.20
2023-01-29T09:59:26.728Z,1.23
2023-01-29T10:02:43.331Z,1.27
2023-01-29T10:05:43.827Z,1.29
2023-01-29T10:09:14.227Z,1.32
2023-01-29T10:12:21.324Z,1.35
2023-01-29T10:15:26.384Z,1.36
2023-01-29T10:18:35.294Z,1.39
2023-01-29T10:21:49.380Z,1.42
2023-01-29T10:25:00.186Z,1.41
2023-01-29T10:27:34.447Z,1.42
2023-01-29T10:30:32.318Z,1.43
2023-01-29T10:33:04.670Z,1.43
2023-01-29T10:35:39.284Z,1.46
2023-01-29T10:38:35.115Z,1.48
2023-01-29T10:41:22.786Z,1.51
2023-01-29T10:45:02.809Z,1.56
2023-01-29T10:47:36.733Z,1.56
2023-01-29T10:50:29.907Z,1.63
2023-01-29T10:53:06.021Z,1.67
2023-01-29T10:56:30.289Z,1.73
2023-01-29T10:59:42.507Z,1.77
2023-01-29T11:02:22.071Z,1.81
2023-01-29T11:04:49.858Z,1.85
2023-01-29T11:07:22.321Z,1.87
2023-01-29T11:10:02.896Z,1.92
2023-01-29T11:12:33.485Z,1.95
2023-01-29T11:15:21.145Z,2.01
2023-01-29T11:18:06.317Z,2.07
2023-01-29T11:20:34.365Z,2.09
2023-01-29T11:23:02.046Z,2.11
2023-01-29T11:25:32.654Z,2.16
2023-01-29T11:28:02.335Z,2.19
2023-01-29T11:30:38.791Z,2.23
2023-01-29T11:33:21.995Z,2.27
2023-01-29T11:35:52.591Z,2.29
2023-01-29T11:38:26.193Z,2.35
2023-01-29T11:41:06.755Z,2.38
2023-01-29T11:43:34.900Z,2.44
2023-01-29T11:46:13.396Z,2.51
2023-01-29T11:48:59.130Z,2.57
2023-01-29T11:51:30.066Z,2.59
2023-01-29T11:54:06.589Z,2.63
2023-01-29T11:56:45.355Z,2.65
2023-01-29T11:59:44.256Z,2.68
2023-01-29T12:02:32.204Z,2.70
2023-01-29T12:05:15.430Z,2.71
2023-01-29T12:07:47.420Z,2.73
2023-01-29T12:10:40.379Z,2.80
2023-01-29T12:13:28.454Z,2.81
2023-01-29T12:16:18.295Z,2.82
2023-01-29T12:18:54.661Z,2.81
2023-01-29T12:21:55.983Z,2.82
2023-01-29T12:24:43.943Z,2.80
2023-01-29T12:27:30.280Z,2.81
2023-01-29T12:31:04.170Z,2.82
2023-01-29T12:34:12.691Z,2.81
2023-01-29T12:36:53.526Z,2.80
2023-01-29T12:39:21.990Z,2.82
2023-01-29T12:42:13.209Z,2.86
2023-01-29T12:44:53.043Z,2.85
2023-01-29T12:47:26.653Z,2.86
2023-01-29T12:50:02.134Z,2.87
2023-01-29T12:52:50.163Z,2.87
2023-01-29T12:55:24.251Z,2.87
2023-01-29T12:58:04.197Z,2.90
2023-01-29T13:00:44.907Z,2.92
2023-01-29T13:03:29.726Z,2.90
2023-01-29T13:06:04.193Z,2.90
2023-01-29T13:08:53.735Z,2.93
2023-01-29T13:11:35.162Z,2.93
2023-01-29T13:14:22.800Z,2.93
2023-01-29T13:17:03.098Z,2.93
2023-01-29T13:19:43.447Z,2.97
2023-01-29T13:22:29.619Z,2.99
2023-01-29T13:25:04.820Z,2.99
2023-01-29T13:27:36.959Z,3.02
2023-01-29T13:30:05.590Z,3.03
2023-01-29T13:32:36.199Z,3.06
2023-01-29T13:35:15.489Z,3.10
2023-01-29T13:37:52.257Z,3.09
2023-01-29T13:40:30.300Z,3.11
2023-01-29T13:43:00.629Z,3.11
2023-01-29T13:45:44.176Z,3.12
2023-01-29T13:48:35.734Z,3.15
2023-01-29T13:51:17.749Z,3.15
2023-01-29T13:53:58.502Z,3.16
2023-01-29T13:56:33.380Z,3.16
2023-01-29T13:59:23.000Z,3.17
2023-01-29T14:01:50.588Z,3.17
2023-01-29T14:04:29.163Z,3.19
2023-01-29T14:07:03.301Z,3.19
2023-01-29T14:09:36.895Z,3.19
2023-01-29T14:12:25.571Z,3.18
2023-01-29T14:14:56.694Z,3.18
2023-01-29T14:17:27.474Z,3.18
2023-01-29T14:20:19.328Z,3.20
2023-01-29T14:22:57.750Z,3.17
2023-01-29T14:25:33.721Z,3.18
2023-01-29T14:28:04.626Z,3.18
2023-01-29T14:30:36.357Z,3.21
2023-01-29T14:33:05.649Z,3.17
2023-01-29T14:35:34.051Z,3.19
2023-01-29T14:38:06.572Z,3.23
2023-01-29T14:40:37.017Z,3.26
2023-01-29T14:43:19.899Z,3.30
2023-01-29T14:45:49.523Z,3.30
2023-01-29T14:48:48.643Z,3.30
2023-01-29T14:51:20.216Z,3.29
2023-01-29T14:54:14.095Z,3.31
2023-01-29T14:56:58.510Z,3.32
2023-01-29T14:59:56.398Z,3.31
2023-01-29T15:02:38.520Z,3.30
2023-01-29T15:05:37.202Z,3.28
2023-01-29T15:08:32.743Z,3.27
2023-01-29T15:11:27.995Z,3.25
2023-01-29T15:14:24.579Z,3.25
2023-01-29T15:17:18.184Z,3.22
2023-01-29T15:19:48.479Z,3.19
2023-01-29T15:22:22.064Z,3.19
2023-01-29T15:25:19.189Z,3.19
2023-01-29T15:27:48.194Z,3.18
2023-01-29T15:30:22.400Z,3.16
2023-01-29T15:32:50.293Z,3.16
2023-01-29T15:35:33.133Z,3.16
2023-01-29T15:38:19.884Z,3.15
2023-01-29T15:41:02.545Z,3.14
2023-01-29T15:43:44.548Z,3.14
2023-01-29T15:46:28.402Z,3.14
2023-01-29T15:49:01.499Z,3.14
2023-01-29T15:51:30.126Z,3.12
2023-01-29T15:54:10.213Z,3.12
2023-01-29T15:56:47.299Z,3.10
2023-01-29T15:59:39.403Z,3.11
2023-01-29T16:02:34.706Z,3.08
2023-01-29T16:05:05.556Z,3.05
2023-01-29T16:07:34.775Z,3.04
2023-01-29T16:10:03.464Z,3.04
2023-01-29T16:12:34.284Z,3.04
2023-01-29T16:15:05.129Z,3.03
2023-01-29T16:17:35.420Z,3.02
2023-01-29T16:20:07.908Z,3.00
2023-01-29T16:22:38.905Z,3.01
2023-01-29T16:25:14.690Z,3.01
2023-01-29T16:27:44.367Z,3.01
2023-01-29T16:30:17.748Z,3.01
2023-01-29T16:32:45.414Z,3.00
2023-01-29T16:35:17.223Z,3.03
2023-01-29T16:37:51.449Z,3.04
2023-01-29T16:40:34.148Z,3.03
2023-01-29T16:43:28.407Z,3.02
2023-01-29T16:46:46.095Z,3.00
2023-01-29T16:49:39.863Z,2.99
2023-01-29T16:52:54.666Z,3.00
2023-01-29T16:55:25.408Z,2.97
2023-01-29T16:57:55.800Z,2.98
2023-01-29T17:00:29.645Z,2.98
2023-01-29T17:03:07.573Z,2.98
2023-01-29T17:05:38.376Z,2.97
2023-01-29T17:08:07.520Z,2.98
2023-01-29T17:10:35.985Z,2.98
2023-01-29T17:13:15.089Z,2.98
2023-01-29T17:15:45.443Z,2.96
2023-01-29T17:18:25.273Z,2.98
2023-01-29T17:20:53.090Z,2.94
2023-01-29T17:23:22.244Z,2.94
2023-01-29T17:25:50.172Z,2.95
2023-01-29T17:28:18.221Z,2.95
2023-01-29T17:30:56.526Z,2.94
2023-01-29T17:33:32.675Z,2.92
2023-01-29T17:36:00.324Z,2.94
2023-01-29T17:38:27.835Z,2.94
2023-01-29T17:41:14.610Z,2.96
2023-01-29T17:43:44.120Z,2.94
2023-01-29T17:46:17.572Z,2.96
2023-01-29T17:48:46.153Z,2.95
2023-01-29T17:51:17.105Z,2.98
2023-01-29T17:53:46.629Z,2.97
2023-01-29T17:56:27.594Z,2.98
2023-01-29T17:58:55.282Z,2.95
2023-01-29T18:01:22.747Z,2.97
2023-01-29T18:03:50.324Z,2.97
2023-01-29T18:06:29.724Z,3.01
2023-01-29T18:08:58.485Z,2.99
2023-01-29T18:11:26.002Z,2.99
2023-01-29T18:13:53.808Z,3.02
2023-01-29T18:16:22.678Z,3.03
2023-01-29T18:18:52.493Z,3.03
2023-01-29T18:21:20.165Z,3.04
2023-01-29T18:23:47.629Z,3.05
2023-01-29T18:26:17.414Z,3.05
2023-01-29T18:28:45.151Z,3.05
2023-01-29T18:31:14.451Z,3.06
2023-01-29T18:33:42.197Z,3.07
2023-01-29T18:36:09.838Z,3.07
2023-01-29T18:38:37.304Z,3.08
2023-01-29T18:41:07.169Z,3.10
2023-01-29T18:43:34.741Z,3.10
2023-01-29T18:46:02.322Z,3.09
2023-01-29T18:48:31.101Z,3.09
2023-01-29T18:50:59.620Z,3.08
2023-01-29T18:53:27.442Z,3.07
2023-01-29T18:56:02.712Z,3.06
2023-01-29T18:58:36.238Z,3.05
2023-01-29T19:01:11.695Z,3.06
2023-01-29T19:03:41.574Z,3.06
2023-01-29T19:06:11.651Z,3.06
2023-01-29T19:08:40.771Z,3.05
2023-01-29T19:11:09.066Z,3.06
2023-01-29T19:13:38.043Z,3.08
2023-01-29T19:16:12.642Z,3.09
2023-01-29T19:18:40.205Z,3.07
2023-01-29T19:21:14.164Z,3.07
2023-01-29T19:23:43.637Z,3.06
2023-01-29T19:26:12.037Z,3.04
2023-01-29T19:28:40.577Z,3.05
2023-01-29T19:31:09.361Z,3.05
2023-01-29T19:33:36.969Z,3.05
2023-01-29T19:36:05.278Z,3.04
2023-01-29T19:38:37.704Z,3.03
2023-01-29T19:41:05.872Z,3.02
2023-01-29T19:43:33.497Z,3.02
2023-01-29T19:46:02.419Z,3.03
2023-01-29T19:48:30.271Z,3.02
2023-01-29T19:51:04.274Z,3.01
2023-01-29T19:53:32.092Z,3.01
2023-01-29T19:56:03.440Z,3.02
2023-01-29T19:58:32.433Z,3.01
2023-01-29T20:01:17.149Z,3.02
2023-01-29T20:03:49.405Z,3.00
2023-01-29T20:06:22.329Z,3.00
2023-01-29T20:08:50.053Z,3.04
2023-01-29T20:11:21.561Z,3.02
2023-01-29T20:13:51.817Z,3.04
2023-01-29T20:16:20.765Z,3.04
2023-01-29T20:18:49.394Z,3.05
2023-01-29T20:21:22.036Z,3.06
2023-01-29T20:23:51.398Z,3.08
2023-01-29T20:26:19.499Z,3.08
2023-01-29T20:28:48.514Z,3.09
2023-01-29T20:31:16.374Z,3.10
2023-01-29T20:33:44.387Z,3.13
2023-01-29T20:36:14.609Z,3.14
2023-01-29T20:38:42.276Z,3.15
2023-01-29T20:41:14.157Z,3.16
2023-01-29T20:43:42.959Z,3.18
2023-01-29T20:46:11.578Z,3.21
2023-01-29T20:48:40.046Z,3.22
2023-01-29T20:51:15.637Z,3.26
2023-01-29T20:53:46.378Z,3.26
2023-01-29T20:56:17.022Z,3.29
2023-01-29T20:58:46.736Z,3.29
2023-01-29T21:01:18.906Z,3.33
2023-01-29T21:03:47.663Z,3.35
2023-01-29T21:06:15.976Z,3.36
2023-01-29T21:08:43.443Z,3.39
2023-01-29T21:11:11.524Z,3.41
2023-01-29T21:13:39.118Z,3.44
2023-01-29T21:16:07.082Z,3.47
2023-01-29T21:18:34.554Z,3.50
2023-01-29T21:21:02.062Z,3.52
2023-01-29T21:23:29.654Z,3.54
2023-01-29T21:26:05.681Z,3.56
2023-01-29T21:28:34.418Z,3.55
2023-01-29T21:31:05.546Z,3.58
2023-01-29T21:33:34.377Z,3.59
2023-01-29T21:36:02.290Z,3.61
2023-01-29T21:38:29.859Z,3.62
2023-01-29T21:41:02.838Z,3.62
2023-01-29T21:43:31.161Z,3.65
2023-01-29T21:46:04.905Z,3.67
2023-01-29T21:48:32.868Z,3.67
2023-01-29T21:51:00.403Z,3.68
2023-01-29T21:53:27.882Z,3.71
2023-01-29T21:56:03.727Z,3.73
2023-01-29T21:58:32.541Z,3.73
2023-01-29T22:01:18.099Z,3.74
2023-01-29T22:03:47.804Z,3.76
2023-01-29T22:06:15.953Z,3.78
2023-01-29T22:08:43.525Z,3.79
2023-01-29T22:11:11.239Z,3.80
2023-01-29T22:13:39.035Z,3.82
2023-01-29T22:16:06.967Z,3.85
2023-01-29T22:18:34.903Z,3.85
2023-01-29T22:21:03.000Z,3.87
2023-01-29T22:23:31.812Z,3.88
2023-01-29T22:26:04.402Z,3.90
2023-01-29T22:28:32.054Z,3.90
2023-01-29T22:31:04.898Z,3.92
2023-01-29T22:33:33.467Z,3.92
2023-01-29T22:36:01.600Z,3.93
2023-01-29T22:38:29.629Z,3.94
2023-01-29T22:41:00.153Z,3.95
2023-01-29T22:43:29.228Z,3.95
2023-01-29T22:45:56.887Z,3.96
2023-01-29T22:48:24.700Z,3.99
2023-01-29T22:51:09.935Z,3.99
2023-01-29T22:53:44.592Z,4.01
2023-01-29T22:56:12.624Z,4.01
2023-01-29T22:58:41.237Z,4.01
2023-01-29T23:01:10.487Z,4.01
2023-01-29T23:03:38.211Z,4.02
2023-01-29T23:06:06.025Z,4.05
2023-01-29T23:08:34.777Z,4.05
2023-01-29T23:11:14.975Z,4.06
2023-01-29T23:13:44.984Z,4.08
2023-01-29T23:16:15.775Z,4.09
2023-01-29T23:18:44.661Z,4.10
2023-01-29T23:21:12.616Z,4.11
2023-01-29T23:23:40.187Z,4.13
2023-01-29T23:26:28.857Z,4.13
2023-01-29T23:28:56.630Z,4.16
2023-01-29T23:31:24.560Z,4.16
2023-01-29T23:33:52.131Z,4.19
2023-01-29T23:36:20.032Z,4.21
2023-01-29T23:38:47.600Z,4.21
2023-01-29T23:41:16.122Z,4.25
2023-01-29T23:43:43.954Z,4.26
2023-01-29T23:46:11.713Z,4.27
2023-01-29T23:48:39.474Z,4.30
2023-01-29T23:51:07.072Z,4.32
2023-01-29T23:53:34.690Z,4.34
2023-01-29T23:56:05.443Z,4.36
2023-01-29T23:58:33.581Z,4.37
